sensor_id;sensor_type;location;lat;lon;timestamp;pressure;altitude;pressure_sealevel;temperature;humidity
10638;BME280;47007;49.252;8.904;2022-10-23T00:01:43;99905.13;;;11.35;100.00
10638;BME280;47007;49.252;8.904;2022-10-23T00:04:18;99881.31;;;11.27;100.00
10638;BME280;47007;49.252;8.904;2022-10-23T00:06:45;99898.16;;;11.34;100.00
10638;BME280;47007;49.252;8.904;2022-10-23T00:09:14;99909.59;;;11.34;100.00
10638;BME280;47007;49.252;8.904;2022-10-23T00:11:43;99874.75;;;11.23;100.00
10638;BME280;47007;49.252;8.904;2022-10-23T00:14:14;99885.44;;;11.29;100.00
10638;BME280;47007;49.252;8.904;2022-10-23T00:16:41;99890.66;;;11.37;100.00
10638;BME280;47007;49.252;8.904;2022-10-23T00:19:08;99857.56;;;11.19;100.00
10638;BME280;47007;49.252;8.904;2022-10-23T00:21:35;99854.25;;;11.16;100.00
10638;BME280;47007;49.252;8.904;2022-10-23T00:24:02;99889.56;;;11.32;100.00
10638;BME280;47007;49.252;8.904;2022-10-23T00:26:29;99868.16;;;11.19;100.00
10638;BME280;47007;49.252;8.904;2022-10-23T00:28:55;99882.06;;;11.21;100.00
10638;BME280;47007;49.252;8.904;2022-10-23T00:31:23;99897.63;;;11.24;100.00
10638;BME280;47007;49.252;8.904;2022-10-23T00:33:51;99886.09;;;11.16;100.00
10638;BME280;47007;49.252;8.904;2022-10-23T00:36:19;99898.19;;;11.19;100.00
10638;BME280;47007;49.252;8.904;2022-10-23T00:38:47;99882.53;;;11.24;100.00
10638;BME280;47007;49.252;8.904;2022-10-23T00:41:22;99891.56;;;11.30;100.00
10638;BME280;47007;49.252;8.904;2022-10-23T00:44:00;99865.84;;;11.30;100.00
10638;BME280;47007;49.252;8.904;2022-10-23T00:46:27;99844.84;;;11.14;100.00
10638;BME280;47007;49.252;8.904;2022-10-23T00:48:55;99865.41;;;11.27;100.00
10638;BME280;47007;49.252;8.904;2022-10-23T00:51:24;99851.38;;;11.11;100.00
10638;BME280;47007;49.252;8.904;2022-10-23T00:53:56;99870.63;;;11.20;100.00
10638;BME280;47007;49.252;8.904;2022-10-23T00:56:44;99807.03;;;10.76;100.00
10638;BME280;47007;49.252;8.904;2022-10-23T00:59:11;99877.50;;;11.14;100.00
10638;BME280;47007;49.252;8.904;2022-10-23T01:01:39;99877.69;;;11.13;100.00
10638;BME280;47007;49.252;8.904;2022-10-23T01:04:08;99835.94;;;10.86;100.00
10638;BME280;47007;49.252;8.904;2022-10-23T01:15:15;99860.34;;;10.96;100.00
10638;BME280;47007;49.252;8.904;2022-10-23T01:21:08;99861.22;;;11.03;100.00
10638;BME280;47007;49.252;8.904;2022-10-23T01:26:54;99855.75;;;11.04;100.00
10638;BME280;47007;49.252;8.904;2022-10-23T01:29:35;99838.75;;;10.99;100.00
10638;BME280;47007;49.252;8.904;2022-10-23T01:37:11;99855.22;;;10.94;100.00
10638;BME280;47007;49.252;8.904;2022-10-23T01:39:45;99825.59;;;10.76;100.00
10638;BME280;47007;49.252;8.904;2022-10-23T01:42:21;99849.75;;;10.81;100.00
10638;BME280;47007;49.252;8.904;2022-10-23T01:44:52;99826.06;;;10.65;100.00
10638;BME280;47007;49.252;8.904;2022-10-23T01:47:26;99847.00;;;10.74;100.00
10638;BME280;47007;49.252;8.904;2022-10-23T01:50:00;99821.88;;;10.56;100.00
10638;BME280;47007;49.252;8.904;2022-10-23T01:52:27;99841.91;;;10.73;100.00
10638;BME280;47007;49.252;8.904;2022-10-23T01:54:58;99828.28;;;10.61;100.00
10638;BME280;47007;49.252;8.904;2022-10-23T01:57:29;99844.16;;;10.76;100.00
10638;BME280;47007;49.252;8.904;2022-10-23T02:00:09;99835.59;;;10.74;100.00
10638;BME280;47007;49.252;8.904;2022-10-23T02:02:53;99853.75;;;10.77;100.00
10638;BME280;47007;49.252;8.904;2022-10-23T02:05:29;99834.00;;;10.65;100.00
10638;BME280;47007;49.252;8.904;2022-10-23T02:07:57;99836.41;;;10.60;100.00
10638;BME280;47007;49.252;8.904;2022-10-23T02:13:56;99823.59;;;10.63;100.00
10638;BME280;47007;49.252;8.904;2022-10-23T02:21:32;99823.22;;;10.81;100.00
10638;BME280;47007;49.252;8.904;2022-10-23T02:24:06;99737.72;;;10.43;100.00
10638;BME280;47007;49.252;8.904;2022-10-23T02:26:51;99795.06;;;10.80;100.00
10638;BME280;47007;49.252;8.904;2022-10-23T02:29:30;99816.59;;;11.06;100.00
10638;BME280;47007;49.252;8.904;2022-10-23T02:32:00;99806.81;;;11.07;100.00
10638;BME280;47007;49.252;8.904;2022-10-23T02:34:27;99782.44;;;10.97;100.00
10638;BME280;47007;49.252;8.904;2022-10-23T02:36:54;99800.63;;;11.00;100.00
10638;BME280;47007;49.252;8.904;2022-10-23T02:39:23;99798.69;;;11.08;100.00
10638;BME280;47007;49.252;8.904;2022-10-23T02:42:02;99791.88;;;11.21;100.00
10638;BME280;47007;49.252;8.904;2022-10-23T02:44:41;99813.25;;;11.34;100.00
10638;BME280;47007;49.252;8.904;2022-10-23T02:50:33;99795.16;;;11.23;100.00
10638;BME280;47007;49.252;8.904;2022-10-23T02:53:06;99773.53;;;11.04;100.00
10638;BME280;47007;49.252;8.904;2022-10-23T02:55:55;99790.09;;;11.06;100.00
10638;BME280;47007;49.252;8.904;2022-10-23T03:01:14;99787.38;;;10.85;100.00
10638;BME280;47007;49.252;8.904;2022-10-23T03:03:52;99800.19;;;10.82;100.00
10638;BME280;47007;49.252;8.904;2022-10-23T03:06:21;99784.75;;;10.85;100.00
10638;BME280;47007;49.252;8.904;2022-10-23T03:08:55;99773.31;;;10.85;100.00
10638;BME280;47007;49.252;8.904;2022-10-23T03:11:24;99769.66;;;10.86;100.00
10638;BME280;47007;49.252;8.904;2022-10-23T03:13:51;99772.72;;;10.89;100.00
10638;BME280;47007;49.252;8.904;2022-10-23T03:16:18;99778.69;;;10.91;100.00
10638;BME280;47007;49.252;8.904;2022-10-23T03:18:50;99759.47;;;10.89;100.00
10638;BME280;47007;49.252;8.904;2022-10-23T03:21:17;99747.13;;;10.96;100.00
10638;BME280;47007;49.252;8.904;2022-10-23T03:23:43;99774.75;;;11.23;100.00
10638;BME280;47007;49.252;8.904;2022-10-23T03:26:16;99760.78;;;11.14;100.00
10638;BME280;47007;49.252;8.904;2022-10-23T03:28:42;99760.97;;;11.13;100.00
10638;BME280;47007;49.252;8.904;2022-10-23T03:31:09;99759.53;;;11.10;100.00
10638;BME280;47007;49.252;8.904;2022-10-23T03:33:37;99750.47;;;11.05;100.00
10638;BME280;47007;49.252;8.904;2022-10-23T03:36:07;99744.72;;;11.01;100.00
10638;BME280;47007;49.252;8.904;2022-10-23T03:38:34;99768.72;;;11.14;100.00
10638;BME280;47007;49.252;8.904;2022-10-23T03:41:03;99762.44;;;11.15;100.00
10638;BME280;47007;49.252;8.904;2022-10-23T03:43:29;99741.38;;;11.14;100.00
10638;BME280;47007;49.252;8.904;2022-10-23T03:45:56;99747.50;;;11.14;100.00
10638;BME280;47007;49.252;8.904;2022-10-23T03:48:24;99700.53;;;10.87;100.00
10638;BME280;47007;49.252;8.904;2022-10-23T03:50:55;99777.22;;;11.25;100.00
10638;BME280;47007;49.252;8.904;2022-10-23T03:53:22;99780.50;;;11.27;100.00
10638;BME280;47007;49.252;8.904;2022-10-23T03:55:49;99756.69;;;11.12;100.00
10638;BME280;47007;49.252;8.904;2022-10-23T03:58:16;99781.44;;;11.19;100.00
10638;BME280;47007;49.252;8.904;2022-10-23T04:00:43;99768.19;;;11.19;100.00
10638;BME280;47007;49.252;8.904;2022-10-23T04:03:09;99748.53;;;11.13;100.00
10638;BME280;47007;49.252;8.904;2022-10-23T04:05:36;99770.53;;;11.29;100.00
10638;BME280;47007;49.252;8.904;2022-10-23T04:08:03;99765.41;;;11.27;100.00
10638;BME280;47007;49.252;8.904;2022-10-23T04:10:31;99770.78;;;11.34;100.00
10638;BME280;47007;49.252;8.904;2022-10-23T04:12:58;99770.66;;;11.42;100.00
10638;BME280;47007;49.252;8.904;2022-10-23T04:15:26;99783.09;;;11.41;100.00
10638;BME280;47007;49.252;8.904;2022-10-23T04:17:53;99744.75;;;11.23;100.00
10638;BME280;47007;49.252;8.904;2022-10-23T04:20:20;99751.91;;;11.22;100.00
10638;BME280;47007;49.252;8.904;2022-10-23T04:22:46;99719.78;;;10.96;100.00
10638;BME280;47007;49.252;8.904;2022-10-23T04:25:13;99764.06;;;11.16;100.00
10638;BME280;47007;49.252;8.904;2022-10-23T04:27:40;99778.97;;;11.18;100.00
10638;BME280;47007;49.252;8.904;2022-10-23T04:30:07;99772.16;;;11.08;100.00
10638;BME280;47007;49.252;8.904;2022-10-23T04:32:36;99755.31;;;11.01;100.00
10638;BME280;47007;49.252;8.904;2022-10-23T04:35:03;99785.22;;;11.10;100.00
10638;BME280;47007;49.252;8.904;2022-10-23T04:37:30;99778.59;;;10.99;100.00
10638;BME280;47007;49.252;8.904;2022-10-23T04:39:58;99781.78;;;10.95;100.00
10638;BME280;47007;49.252;8.904;2022-10-23T04:42:25;99780.16;;;10.94;100.00
10638;BME280;47007;49.252;8.904;2022-10-23T04:44:53;99773.47;;;10.98;100.00
10638;BME280;47007;49.252;8.904;2022-10-23T04:47:19;99783.88;;;10.99;100.00
10638;BME280;47007;49.252;8.904;2022-10-23T04:49:55;99765.13;;;11.01;100.00
10638;BME280;47007;49.252;8.904;2022-10-23T04:52:55;99765.06;;;11.15;100.00
10638;BME280;47007;49.252;8.904;2022-10-23T04:55:52;99723.59;;;11.08;100.00
10638;BME280;47007;49.252;8.904;2022-10-23T04:58:28;99745.06;;;11.34;100.00
10638;BME280;47007;49.252;8.904;2022-10-23T05:00:57;99735.66;;;11.32;100.00
10638;BME280;47007;49.252;8.904;2022-10-23T05:03:25;99758.13;;;11.57;100.00
10638;BME280;47007;49.252;8.904;2022-10-23T05:05:53;99761.91;;;11.69;100.00
10638;BME280;47007;49.252;8.904;2022-10-23T05:08:28;99757.75;;;11.81;100.00
10638;BME280;47007;49.252;8.904;2022-10-23T05:11:04;99758.34;;;12.05;100.00
10638;BME280;47007;49.252;8.904;2022-10-23T05:13:35;99762.34;;;12.22;100.00
10638;BME280;47007;49.252;8.904;2022-10-23T05:16:02;99758.31;;;12.33;100.00
10638;BME280;47007;49.252;8.904;2022-10-23T05:18:39;99739.03;;;12.24;100.00
10638;BME280;47007;49.252;8.904;2022-10-23T05:21:19;99748.72;;;12.38;100.00
10638;BME280;47007;49.252;8.904;2022-10-23T05:23:48;99722.03;;;12.18;100.00
10638;BME280;47007;49.252;8.904;2022-10-23T05:26:16;99736.66;;;12.36;100.00
10638;BME280;47007;49.252;8.904;2022-10-23T05:28:45;99731.56;;;12.41;100.00
10638;BME280;47007;49.252;8.904;2022-10-23T05:31:15;99735.47;;;12.45;100.00
10638;BME280;47007;49.252;8.904;2022-10-23T05:33:47;99702.94;;;12.36;100.00
10638;BME280;47007;49.252;8.904;2022-10-23T05:36:14;99732.94;;;12.71;100.00
10638;BME280;47007;49.252;8.904;2022-10-23T05:38:43;99698.31;;;12.58;100.00
10638;BME280;47007;49.252;8.904;2022-10-23T05:41:15;99668.19;;;12.44;100.00
10638;BME280;47007;49.252;8.904;2022-10-23T05:43:42;99719.25;;;12.81;100.00
10638;BME280;47007;49.252;8.904;2022-10-23T05:46:28;99718.25;;;12.82;100.00
10638;BME280;47007;49.252;8.904;2022-10-23T05:49:10;99721.09;;;12.87;100.00
10638;BME280;47007;49.252;8.904;2022-10-23T05:52:12;99710.47;;;12.87;100.00
10638;BME280;47007;49.252;8.904;2022-10-23T05:54:50;99690.75;;;12.62;100.00
10638;BME280;47007;49.252;8.904;2022-10-23T05:57:35;99703.09;;;12.82;100.00
10638;BME280;47007;49.252;8.904;2022-10-23T06:00:06;99673.75;;;12.56;100.00
10638;BME280;47007;49.252;8.904;2022-10-23T06:02:38;99711.22;;;12.68;100.00
10638;BME280;47007;49.252;8.904;2022-10-23T06:05:18;99698.91;;;12.53;100.00
10638;BME280;47007;49.252;8.904;2022-10-23T06:07:59;99684.34;;;12.43;100.00
10638;BME280;47007;49.252;8.904;2022-10-23T06:10:26;99692.13;;;12.44;100.00
10638;BME280;47007;49.252;8.904;2022-10-23T06:12:55;99682.13;;;12.46;100.00
10638;BME280;47007;49.252;8.904;2022-10-23T06:15:24;99661.13;;;12.17;100.00
10638;BME280;47007;49.252;8.904;2022-10-23T06:18:00;99692.00;;;12.24;100.00
10638;BME280;47007;49.252;8.904;2022-10-23T06:20:29;99670.28;;;12.08;100.00
10638;BME280;47007;49.252;8.904;2022-10-23T06:23:06;99635.22;;;11.84;100.00
10638;BME280;47007;49.252;8.904;2022-10-23T06:25:51;99670.50;;;12.13;100.00
10638;BME280;47007;49.252;8.904;2022-10-23T06:28:31;99689.09;;;12.13;100.00
10638;BME280;47007;49.252;8.904;2022-10-23T06:30:58;99665.72;;;11.95;100.00
10638;BME280;47007;49.252;8.904;2022-10-23T06:33:25;99595.84;;;11.60;100.00
10638;BME280;47007;49.252;8.904;2022-10-23T06:35:54;99688.72;;;12.16;100.00
10638;BME280;47007;49.252;8.904;2022-10-23T06:38:21;99675.59;;;12.08;100.00
10638;BME280;47007;49.252;8.904;2022-10-23T06:40:54;99683.44;;;12.22;100.00
10638;BME280;47007;49.252;8.904;2022-10-23T06:43:33;99681.81;;;12.28;100.00
10638;BME280;47007;49.252;8.904;2022-10-23T06:46:19;99639.47;;;12.20;100.00
10638;BME280;47007;49.252;8.904;2022-10-23T06:49:04;99676.44;;;12.63;100.00
10638;BME280;47007;49.252;8.904;2022-10-23T06:51:37;99634.06;;;12.54;100.00
10638;BME280;47007;49.252;8.904;2022-10-23T06:54:08;99630.22;;;12.64;100.00
10638;BME280;47007;49.252;8.904;2022-10-23T06:56:55;99680.00;;;13.03;100.00
10638;BME280;47007;49.252;8.904;2022-10-23T06:59:32;99658.53;;;13.04;100.00
10638;BME280;47007;49.252;8.904;2022-10-23T07:01:59;99654.00;;;13.11;100.00
10638;BME280;47007;49.252;8.904;2022-10-23T07:04:26;99664.09;;;13.16;100.00
10638;BME280;47007;49.252;8.904;2022-10-23T07:06:55;99629.88;;;12.93;100.00
10638;BME280;47007;49.252;8.904;2022-10-23T07:09:27;99674.16;;;13.34;100.00
10638;BME280;47007;49.252;8.904;2022-10-23T07:11:54;99636.88;;;13.20;100.00
10638;BME280;47007;49.252;8.904;2022-10-23T07:14:32;99646.69;;;13.26;100.00
10638;BME280;47007;49.252;8.904;2022-10-23T07:17:01;99641.19;;;13.35;100.00
10638;BME280;47007;49.252;8.904;2022-10-23T07:19:28;99643.63;;;13.36;100.00
10638;BME280;47007;49.252;8.904;2022-10-23T07:21:56;99677.59;;;13.60;100.00
10638;BME280;47007;49.252;8.904;2022-10-23T07:24:49;99656.94;;;13.56;100.00
10638;BME280;47007;49.252;8.904;2022-10-23T07:27:24;99659.56;;;13.62;100.00
10638;BME280;47007;49.252;8.904;2022-10-23T07:29:56;99652.41;;;13.63;100.00
10638;BME280;47007;49.252;8.904;2022-10-23T07:32:23;99620.06;;;13.59;100.00
10638;BME280;47007;49.252;8.904;2022-10-23T07:35:22;99675.09;;;13.98;100.00
10638;BME280;47007;49.252;8.904;2022-10-23T07:37:58;99654.63;;;13.92;100.00
10638;BME280;47007;49.252;8.904;2022-10-23T07:40:28;99636.97;;;13.98;100.00
10638;BME280;47007;49.252;8.904;2022-10-23T07:42:55;99622.78;;;14.11;100.00
10638;BME280;47007;49.252;8.904;2022-10-23T07:45:22;99620.44;;;13.83;100.00
10638;BME280;47007;49.252;8.904;2022-10-23T07:47:50;99674.44;;;14.10;100.00
10638;BME280;47007;49.252;8.904;2022-10-23T07:50:18;99655.78;;;14.10;100.00
10638;BME280;47007;49.252;8.904;2022-10-23T07:52:46;99659.56;;;14.47;100.00
10638;BME280;47007;49.252;8.904;2022-10-23T07:55:16;99659.09;;;14.63;100.00
10638;BME280;47007;49.252;8.904;2022-10-23T07:57:53;99637.19;;;14.86;100.00
10638;BME280;47007;49.252;8.904;2022-10-23T08:00:33;99573.00;;;14.49;100.00
10638;BME280;47007;49.252;8.904;2022-10-23T08:03:10;99639.63;;;14.94;100.00
10638;BME280;47007;49.252;8.904;2022-10-23T08:05:38;99663.72;;;15.12;100.00
10638;BME280;47007;49.252;8.904;2022-10-23T08:08:05;99640.50;;;15.13;100.00
10638;BME280;47007;49.252;8.904;2022-10-23T08:10:32;99641.63;;;15.30;100.00
10638;BME280;47007;49.252;8.904;2022-10-23T08:12:59;99615.50;;;15.32;100.00
10638;BME280;47007;49.252;8.904;2022-10-23T08:15:47;99625.78;;;15.78;100.00
10638;BME280;47007;49.252;8.904;2022-10-23T08:18:35;99569.34;;;15.86;100.00
10638;BME280;47007;49.252;8.904;2022-10-23T08:21:02;99555.47;;;15.77;100.00
10638;BME280;47007;49.252;8.904;2022-10-23T08:23:30;99584.25;;;16.12;100.00
10638;BME280;47007;49.252;8.904;2022-10-23T08:25:59;99571.97;;;16.41;100.00
10638;BME280;47007;49.252;8.904;2022-10-23T08:28:28;99558.81;;;16.39;100.00
10638;BME280;47007;49.252;8.904;2022-10-23T08:30:56;99560.72;;;16.80;100.00
10638;BME280;47007;49.252;8.904;2022-10-23T08:33:23;99537.91;;;17.13;100.00
10638;BME280;47007;49.252;8.904;2022-10-23T08:35:51;99555.50;;;17.55;100.00
10638;BME280;47007;49.252;8.904;2022-10-23T08:38:26;99564.00;;;17.52;100.00
10638;BME280;47007;49.252;8.904;2022-10-23T08:40:53;99555.03;;;17.70;100.00
10638;BME280;47007;49.252;8.904;2022-10-23T08:43:46;99560.03;;;18.18;100.00
10638;BME280;47007;49.252;8.904;2022-10-23T08:46:37;99529.34;;;18.43;100.00
10638;BME280;47007;49.252;8.904;2022-10-23T08:49:44;99553.38;;;19.11;100.00
10638;BME280;47007;49.252;8.904;2022-10-23T08:55:54;99563.63;;;19.69;100.00
10638;BME280;47007;49.252;8.904;2022-10-23T08:58:26;99546.19;;;19.72;100.00
10638;BME280;47007;49.252;8.904;2022-10-23T09:00:59;99571.47;;;19.93;100.00
10638;BME280;47007;49.252;8.904;2022-10-23T09:03:25;99511.81;;;19.52;100.00
10638;BME280;47007;49.252;8.904;2022-10-23T09:06:18;99528.78;;;19.41;100.00
10638;BME280;47007;49.252;8.904;2022-10-23T09:09:07;99545.94;;;19.73;100.00
10638;BME280;47007;49.252;8.904;2022-10-23T09:11:44;99540.00;;;19.71;100.00
10638;BME280;47007;49.252;8.904;2022-10-23T09:19:30;99514.91;;;20.09;100.00
10638;BME280;47007;49.252;8.904;2022-10-23T09:21:57;99504.75;;;20.17;100.00
10638;BME280;47007;49.252;8.904;2022-10-23T09:24:26;99531.91;;;20.64;100.00
10638;BME280;47007;49.252;8.904;2022-10-23T09:26:57;99536.34;;;20.80;100.00
10638;BME280;47007;49.252;8.904;2022-10-23T09:29:29;99540.47;;;20.88;100.00
10638;BME280;47007;49.252;8.904;2022-10-23T09:31:59;99522.09;;;20.85;100.00
10638;BME280;47007;49.252;8.904;2022-10-23T09:34:28;99525.06;;;20.83;100.00
10638;BME280;47007;49.252;8.904;2022-10-23T09:36:58;99524.81;;;20.90;100.00
10638;BME280;47007;49.252;8.904;2022-10-23T09:39:35;99538.41;;;21.05;100.00
10638;BME280;47007;49.252;8.904;2022-10-23T09:42:14;99524.72;;;20.74;100.00
10638;BME280;47007;49.252;8.904;2022-10-23T09:44:48;99499.69;;;20.74;100.00
10638;BME280;47007;49.252;8.904;2022-10-23T09:47:17;99502.44;;;20.84;100.00
10638;BME280;47007;49.252;8.904;2022-10-23T09:49:48;99491.72;;;20.89;100.00
10638;BME280;47007;49.252;8.904;2022-10-23T09:55:19;99507.75;;;21.11;100.00
10638;BME280;47007;49.252;8.904;2022-10-23T09:57:47;99526.38;;;21.12;100.00
10638;BME280;47007;49.252;8.904;2022-10-23T10:00:17;99522.69;;;21.24;100.00
10638;BME280;47007;49.252;8.904;2022-10-23T10:05:43;99512.53;;;21.04;100.00
10638;BME280;47007;49.252;8.904;2022-10-23T10:10:51;99507.13;;;21.36;100.00
10638;BME280;47007;49.252;8.904;2022-10-23T10:16:04;99527.78;;;21.67;100.00
10638;BME280;47007;49.252;8.904;2022-10-23T10:18:38;99522.75;;;21.34;100.00
10638;BME280;47007;49.252;8.904;2022-10-23T10:26:35;99497.97;;;21.00;100.00
10638;BME280;47007;49.252;8.904;2022-10-23T10:34:51;99519.41;;;20.85;100.00
10638;BME280;47007;49.252;8.904;2022-10-23T10:37:45;99493.78;;;20.77;100.00
10638;BME280;47007;49.252;8.904;2022-10-23T10:40:30;99474.00;;;20.66;100.00
10638;BME280;47007;49.252;8.904;2022-10-23T10:51:43;99448.72;;;21.09;100.00
10638;BME280;47007;49.252;8.904;2022-10-23T10:56:46;99450.84;;;21.49;100.00
10638;BME280;47007;49.252;8.904;2022-10-23T10:59:26;99433.53;;;22.23;100.00
10638;BME280;47007;49.252;8.904;2022-10-23T11:04:45;99401.31;;;21.13;100.00
10638;BME280;47007;49.252;8.904;2022-10-23T11:07:19;99436.53;;;20.97;100.00
10638;BME280;47007;49.252;8.904;2022-10-23T11:09:47;99445.25;;;21.14;100.00
10638;BME280;47007;49.252;8.904;2022-10-23T11:12:17;99449.75;;;21.45;100.00
10638;BME280;47007;49.252;8.904;2022-10-23T11:14:45;99461.53;;;21.97;100.00
10638;BME280;47007;49.252;8.904;2022-10-23T11:19:46;99421.09;;;22.12;100.00
10638;BME280;47007;49.252;8.904;2022-10-23T11:22:20;99459.72;;;22.33;100.00
10638;BME280;47007;49.252;8.904;2022-10-23T11:36:41;99413.59;;;21.36;100.00
10638;BME280;47007;49.252;8.904;2022-10-23T11:39:25;99402.22;;;21.24;100.00
10638;BME280;47007;49.252;8.904;2022-10-23T11:42:10;99408.41;;;21.30;100.00
10638;BME280;47007;49.252;8.904;2022-10-23T11:44:44;99397.78;;;21.08;100.00
10638;BME280;47007;49.252;8.904;2022-10-23T11:52:36;99383.72;;;20.96;100.00
10638;BME280;47007;49.252;8.904;2022-10-23T11:55:17;99373.91;;;21.22;100.00
10638;BME280;47007;49.252;8.904;2022-10-23T11:58:10;99358.34;;;21.44;100.00
10638;BME280;47007;49.252;8.904;2022-10-23T12:00:50;99364.31;;;21.51;100.00
10638;BME280;47007;49.252;8.904;2022-10-23T12:03:22;99358.09;;;21.56;100.00
10638;BME280;47007;49.252;8.904;2022-10-23T12:06:24;99371.91;;;21.74;100.00
10638;BME280;47007;49.252;8.904;2022-10-23T12:08:55;99365.72;;;21.94;100.00
10638;BME280;47007;49.252;8.904;2022-10-23T12:11:45;99374.13;;;22.18;100.00
10638;BME280;47007;49.252;8.904;2022-10-23T12:14:32;99365.75;;;22.30;100.00
10638;BME280;47007;49.252;8.904;2022-10-23T12:17:00;99345.50;;;22.17;100.00
10638;BME280;47007;49.252;8.904;2022-10-23T12:19:29;99299.56;;;21.56;100.00
10638;BME280;47007;49.252;8.904;2022-10-23T12:22:10;99344.91;;;21.59;100.00
10638;BME280;47007;49.252;8.904;2022-10-23T12:30:23;99351.66;;;21.62;100.00
10638;BME280;47007;49.252;8.904;2022-10-23T12:33:12;99343.78;;;21.55;100.00
10638;BME280;47007;49.252;8.904;2022-10-23T12:38:30;99337.38;;;21.92;100.00
10638;BME280;47007;49.252;8.904;2022-10-23T12:41:07;99341.41;;;22.55;100.00
10638;BME280;47007;49.252;8.904;2022-10-23T12:43:36;99338.56;;;23.16;100.00
10638;BME280;47007;49.252;8.904;2022-10-23T12:46:17;99279.28;;;23.29;100.00
10638;BME280;47007;49.252;8.904;2022-10-23T12:48:48;99343.19;;;24.04;100.00
10638;BME280;47007;49.252;8.904;2022-10-23T12:51:21;99341.94;;;23.42;100.00
10638;BME280;47007;49.252;8.904;2022-10-23T12:53:49;99351.59;;;23.04;100.00
10638;BME280;47007;49.252;8.904;2022-10-23T12:56:16;99325.72;;;22.72;100.00
10638;BME280;47007;49.252;8.904;2022-10-23T12:58:48;99333.06;;;22.56;100.00
10638;BME280;47007;49.252;8.904;2022-10-23T13:01:26;99290.94;;;22.40;100.00
10638;BME280;47007;49.252;8.904;2022-10-23T13:06:48;99313.03;;;22.78;100.00
10638;BME280;47007;49.252;8.904;2022-10-23T13:09:22;99269.88;;;23.22;100.00
10638;BME280;47007;49.252;8.904;2022-10-23T13:12:17;99316.28;;;23.83;100.00
10638;BME280;47007;49.252;8.904;2022-10-23T13:15:17;99310.50;;;23.61;100.00
10638;BME280;47007;49.252;8.904;2022-10-23T13:20:25;99246.63;;;23.16;100.00
10638;BME280;47007;49.252;8.904;2022-10-23T13:22:59;99286.28;;;23.36;100.00
10638;BME280;47007;49.252;8.904;2022-10-23T13:25:32;99277.13;;;23.26;100.00
10638;BME280;47007;49.252;8.904;2022-10-23T13:33:31;99260.28;;;23.40;100.00
10638;BME280;47007;49.252;8.904;2022-10-23T13:36:01;99218.03;;;23.49;100.00
10638;BME280;47007;49.252;8.904;2022-10-23T13:38:39;99228.88;;;23.05;100.00
10638;BME280;47007;49.252;8.904;2022-10-23T13:41:12;99278.53;;;23.19;100.00
10638;BME280;47007;49.252;8.904;2022-10-23T13:43:40;99293.75;;;23.59;100.00
10638;BME280;47007;49.252;8.904;2022-10-23T13:46:14;99274.16;;;23.28;100.00
10638;BME280;47007;49.252;8.904;2022-10-23T13:48:41;99282.84;;;23.69;100.00
10638;BME280;47007;49.252;8.904;2022-10-23T13:51:18;99264.69;;;24.04;100.00
10638;BME280;47007;49.252;8.904;2022-10-23T13:53:46;99253.13;;;23.93;100.00
10638;BME280;47007;49.252;8.904;2022-10-23T13:56:15;99263.09;;;23.69;100.00
10638;BME280;47007;49.252;8.904;2022-10-23T13:58:42;99253.84;;;23.31;100.00
10638;BME280;47007;49.252;8.904;2022-10-23T14:01:19;99261.22;;;23.20;100.00
10638;BME280;47007;49.252;8.904;2022-10-23T14:03:51;99239.06;;;23.13;100.00
10638;BME280;47007;49.252;8.904;2022-10-23T14:06:18;99254.44;;;23.22;100.00
10638;BME280;47007;49.252;8.904;2022-10-23T14:08:45;99228.13;;;22.94;100.00
10638;BME280;47007;49.252;8.904;2022-10-23T14:11:14;99238.19;;;22.73;100.00
10638;BME280;47007;49.252;8.904;2022-10-23T14:13:41;99239.31;;;22.62;100.00
10638;BME280;47007;49.252;8.904;2022-10-23T14:16:11;99198.66;;;22.23;100.00
10638;BME280;47007;49.252;8.904;2022-10-23T14:18:38;99210.56;;;21.97;100.00
10638;BME280;47007;49.252;8.904;2022-10-23T14:21:05;99187.13;;;21.62;100.00
10638;BME280;47007;49.252;8.904;2022-10-23T14:23:32;99207.34;;;21.59;100.00
10638;BME280;47007;49.252;8.904;2022-10-23T14:26:02;99202.50;;;21.61;100.00
10638;BME280;47007;49.252;8.904;2022-10-23T14:28:29;99192.25;;;21.63;100.00
10638;BME280;47007;49.252;8.904;2022-10-23T14:30:56;99196.28;;;21.71;100.00
10638;BME280;47007;49.252;8.904;2022-10-23T14:33:23;99194.69;;;21.75;100.00
10638;BME280;47007;49.252;8.904;2022-10-23T14:35:49;99192.25;;;21.73;100.00
10638;BME280;47007;49.252;8.904;2022-10-23T14:38:16;99169.06;;;21.47;100.00
10638;BME280;47007;49.252;8.904;2022-10-23T14:40:43;99147.19;;;21.13;100.00
10638;BME280;47007;49.252;8.904;2022-10-23T14:43:09;99176.31;;;21.21;100.00
10638;BME280;47007;49.252;8.904;2022-10-23T14:45:36;99183.06;;;21.19;100.00
10638;BME280;47007;49.252;8.904;2022-10-23T14:48:03;99191.66;;;21.10;100.00
10638;BME280;47007;49.252;8.904;2022-10-23T14:50:31;99185.16;;;20.96;100.00
10638;BME280;47007;49.252;8.904;2022-10-23T14:52:59;99151.13;;;20.65;100.00
10638;BME280;47007;49.252;8.904;2022-10-23T14:55:30;99176.75;;;20.77;100.00
10638;BME280;47007;49.252;8.904;2022-10-23T14:57:57;99167.59;;;20.73;100.00
10638;BME280;47007;49.252;8.904;2022-10-23T15:00:24;99166.97;;;20.56;100.00
10638;BME280;47007;49.252;8.904;2022-10-23T15:02:51;99175.88;;;20.52;100.00
10638;BME280;47007;49.252;8.904;2022-10-23T15:05:18;99158.63;;;20.48;100.00
10638;BME280;47007;49.252;8.904;2022-10-23T15:07:45;99183.41;;;20.50;100.00
10638;BME280;47007;49.252;8.904;2022-10-23T15:10:11;99168.56;;;20.47;100.00
10638;BME280;47007;49.252;8.904;2022-10-23T15:12:38;99149.44;;;20.38;100.00
10638;BME280;47007;49.252;8.904;2022-10-23T15:15:06;99163.19;;;20.47;100.00
10638;BME280;47007;49.252;8.904;2022-10-23T15:17:33;99167.47;;;20.38;100.00